Time;durP1;ratioP1;P1;durP2;ratioP2;P2;SDS_P1;SDS_P2;PMS_P1;PMS_P2;Temp;Humidity;BMP_temperature;BMP_pressure;BME280_temperature;BME280_humidity;BME280_pressure;Samples;Min_cycle;Max_cycle;Signal;HPM_P1;HPM_P2
2021/12/22 05:09:40;;;;;;;3.00;2.90;;;;;;;-19.02;79.66;99660.38;6210509;23;20494;-77
2021/12/22 05:12:07;;;;;;;3.88;3.67;;;;;;;-19.06;80.96;99656.84;6160599;23;20025;-76
2021/12/22 05:14:33;;;;;;;2.95;2.80;;;;;;;-19.06;80.32;99663.44;6185260;23;20055;-78
2021/12/22 05:17:02;;;;;;;4.07;3.78;;;;;;;-19.05;79.78;99661.06;6160397;23;20036;-78
2021/12/22 05:19:28;;;;;;;3.05;2.85;;;;;;;-19.10;80.05;99662.41;6211801;23;20480;-77
2021/12/22 05:21:55;;;;;;;3.55;2.22;;;;;;;-19.05;80.72;99667.66;6210327;23;20025;-77
2021/12/22 05:24:21;;;;;;;3.13;2.92;;;;;;;-19.06;81.25;99665.91;6160123;23;20031;-77
2021/12/22 05:26:47;;;;;;;2.63;2.53;;;;;;;-18.99;80.83;99660.53;6211461;23;20020;-77
2021/12/22 05:29:13;;;;;;;6.18;3.20;;;;;;;-18.89;79.23;99667.75;6156748;23;20070;-77
2021/12/22 05:31:39;;;;;;;3.63;3.42;;;;;;;-18.97;79.70;99649.06;6177991;23;20044;-78
2021/12/22 05:34:05;;;;;;;3.63;3.42;;;;;;;-18.91;78.77;99660.19;6183034;23;20027;-76
2021/12/22 05:36:31;;;;;;;3.28;3.08;;;;;;;-18.92;78.27;99662.59;6182996;23;20016;-77
2021/12/22 05:38:58;;;;;;;3.83;3.72;;;;;;;-18.91;78.67;99654.38;6158291;23;20475;-76
2021/12/22 05:41:24;;;;;;;3.67;3.47;;;;;;;-18.91;78.83;99664.34;6184666;23;20076;-76
2021/12/22 05:43:50;;;;;;;5.78;5.13;;;;;;;-18.84;78.14;99657.28;6187364;23;20095;-77
2021/12/22 05:46:16;;;;;;;4.15;3.75;;;;;;;-18.95;77.03;99632.59;6188865;23;20515;-78
2021/12/22 05:48:44;;;;;;;4.22;3.90;;;;;;;-18.82;77.10;99654.91;6215245;23;20013;-76
2021/12/22 05:51:10;;;;;;;6.85;5.47;;;;;;;-18.84;77.35;99659.78;6185552;23;20499;-76
2021/12/22 05:53:36;;;;;;;3.55;3.03;;;;;;;-18.86;77.71;99653.00;6211159;23;20021;-76
2021/12/22 05:56:03;;;;;;;4.78;4.43;;;;;;;-18.85;77.71;99654.72;6210436;23;20020;-78
2021/12/22 05:58:29;;;;;;;3.03;2.90;;;;;;;-18.79;77.10;99665.03;6210345;23;20020;-80
2021/12/22 06:00:56;;;;;;;3.67;3.10;;;;;;;-18.85;77.83;99652.25;6164014;23;20039;-80
2021/12/22 06:03:23;;;;;;;4.65;4.25;;;;;;;-18.81;78.23;99661.59;6192520;23;20016;-80
2021/12/22 06:05:49;;;;;;;3.47;3.17;;;;;;;-18.81;77.81;99667.41;6215082;23;20080;-79
2021/12/22 06:08:15;;;;;;;4.30;4.00;;;;;;;-18.85;77.81;99665.53;6191291;23;20469;-79
2021/12/22 06:10:41;;;;;;;3.60;3.33;;;;;;;-18.95;78.08;99664.91;6161702;23;20469;-78
2021/12/22 06:13:09;;;;;;;3.05;2.85;;;;;;;-18.94;79.06;99664.16;6187537;23;20075;-79
2021/12/22 06:15:36;;;;;;;3.72;3.53;;;;;;;-18.90;78.58;99666.03;6186932;23;20016;-78
2021/12/22 06:18:03;;;;;;;3.80;3.60;;;;;;;-18.86;78.46;99665.44;6212806;23;20460;-78
2021/12/22 06:20:29;;;;;;;4.35;3.83;;;;;;;-18.87;77.63;99651.28;6211466;23;20456;-78
2021/12/22 06:22:56;;;;;;;4.40;4.07;;;;;;;-18.88;78.57;99654.56;6212371;23;20421;-79
2021/12/22 06:25:22;;;;;;;5.50;4.15;;;;;;;-18.85;79.07;99674.63;6162878;23;20051;-79
2021/12/22 06:27:48;;;;;;;3.28;3.10;;;;;;;-18.81;78.22;99676.53;6187392;23;20020;-78
2021/12/22 06:30:14;;;;;;;4.43;3.90;;;;;;;-18.82;78.60;99657.38;6212693;23;20017;-80
2021/12/22 06:32:42;;;;;;;4.05;3.63;;;;;;;-18.80;79.04;99658.31;6213222;23;20020;-77
2021/12/22 06:35:08;;;;;;;3.65;3.45;;;;;;;-18.80;78.71;99658.31;6186904;23;20016;-78
2021/12/22 06:37:34;;;;;;;3.90;3.60;;;;;;;-18.79;80.10;99660.03;6220015;23;20024;-76
2021/12/22 06:40:00;;;;;;;2.17;2.17;;;;;;;-18.86;79.51;99656.34;6223554;23;20124;-78
2021/12/22 06:42:26;;;;;;;2.13;2.03;;;;;;;-18.84;80.31;99672.19;6172699;23;20067;-76
2021/12/22 06:44:52;;;;;;;5.28;4.80;;;;;;;-18.87;80.59;99674.53;6193986;23;20024;-75
2021/12/22 06:47:18;;;;;;;7.43;4.32;;;;;;;-18.81;78.90;99674.03;6218000;23;20404;-76
2021/12/22 06:49:44;;;;;;;3.17;2.97;;;;;;;-18.77;79.03;99675.91;6191654;23;20046;-76
2021/12/22 06:52:11;;;;;;;3.65;3.45;;;;;;;-18.67;79.31;99675.66;6192739;23;20020;-75
2021/12/22 06:54:37;;;;;;;4.25;3.47;;;;;;;-18.76;78.33;99670.16;6168359;23;20016;-76
2021/12/22 06:57:03;;;;;;;7.78;5.82;;;;;;;-18.75;77.38;99674.38;6221483;23;20027;-75
2021/12/22 06:59:31;;;;;;;3.28;3.03;;;;;;;-18.72;77.94;99672.06;6219192;23;20017;-75
2021/12/22 07:01:57;;;;;;;2.67;2.58;;;;;;;-18.73;77.70;99675.31;6190839;23;20020;-75
2021/12/22 07:04:24;;;;;;;4.18;3.28;;;;;;;-18.78;77.67;99669.22;6193357;23;20059;-75
2021/12/22 07:06:50;;;;;;;4.80;3.75;;;;;;;-18.67;78.35;99665.69;6184269;23;20020;-75
2021/12/22 07:09:16;;;;;;;4.35;3.00;;;;;;;-18.61;78.46;99669.38;6210520;23;20079;-76
2021/12/22 07:11:43;;;;;;;2.80;2.70;;;;;;;-18.57;77.35;99677.88;6209176;23;20082;-76
2021/12/22 07:14:09;;;;;;;3.80;3.60;;;;;;;-18.35;77.42;99678.25;6210024;23;20017;-76
2021/12/22 07:16:37;;;;;;;3.05;2.95;;;;;;;-18.30;76.86;99684.38;6183851;23;20102;-76
2021/12/22 07:19:03;;;;;;;13.82;8.43;;;;;;;-18.26;76.80;99686.25;6208948;23;20024;-76
2021/12/22 07:21:31;;;;;;;4.50;4.10;;;;;;;-17.78;75.62;99674.72;6185771;23;20020;-76
2021/12/22 07:23:57;;;;;;;5.60;5.03;;;;;;;-17.00;73.59;99681.28;6212341;23;20021;-74
2021/12/22 07:26:23;;;;;;;6.45;4.90;;;;;;;-16.11;70.31;99691.41;6187304;23;20337;-77
2021/12/22 07:28:49;;;;;;;3.67;3.42;;;;;;;-16.56;69.08;99680.13;6186904;23;20012;-76
2021/12/22 07:31:16;;;;;;;5.65;5.25;;;;;;;-16.45;68.25;99696.44;6186744;23;20024;-76
2021/12/22 07:34:07;;;;;;;5.10;4.65;;;;;;;-17.17;71.42;99691.16;6211780;23;20024;-76
2021/12/22 07:36:41;;;;;;;8.07;4.88;;;;;;;-17.22;71.73;99700.94;6212714;23;20021;-77
2021/12/22 07:39:08;;;;;;;4.45;4.25;;;;;;;-16.92;70.63;99693.28;6161537;23;20442;-76
2021/12/22 07:41:34;;;;;;;2.67;2.58;;;;;;;-16.70;70.41;99706.03;6185825;23;20025;-75
2021/12/22 07:44:00;;;;;;;4.22;3.92;;;;;;;-15.23;65.27;99701.25;6212639;23;20095;-75
2021/12/22 07:46:26;;;;;;;3.30;3.10;;;;;;;-14.91;63.74;99687.63;6212497;23;20244;-75
2021/12/22 07:48:52;;;;;;;2.90;2.70;;;;;;;-14.26;61.33;99699.50;6185290;23;20031;-76
2021/12/22 07:51:19;;;;;;;5.50;4.43;;;;;;;-15.69;64.09;99693.38;6186179;23;20488;-76
2021/12/22 07:53:45;;;;;;;3.85;3.10;;;;;;;-15.96;66.27;99697.97;6211607;23;20075;-77
2021/12/22 07:56:11;;;;;;;4.13;3.92;;;;;;;-16.03;66.16;99677.66;6212632;23;20027;-76
2021/12/22 07:58:38;;;;;;;4.15;3.58;;;;;;;-16.08;66.30;99712.41;6212774;23;20083;-77
2021/12/22 08:01:05;;;;;;;4.78;4.38;;;;;;;-16.50;66.97;99707.84;6185886;23;20491;-75
2021/12/22 08:03:31;;;;;;;6.57;5.88;;;;;;;-16.89;67.27;99698.44;6214455;23;20016;-75
2021/12/22 08:05:57;;;;;;;18.15;9.27;;;;;;;-16.90;67.83;99706.69;6187627;23;20016;-75
2021/12/22 08:08:23;;;;;;;3.38;3.17;;;;;;;-16.77;68.58;99714.00;6162968;23;20021;-76
2021/12/22 08:10:49;;;;;;;5.70;5.20;;;;;;;-16.74;69.13;99719.13;6213874;23;20040;-77
2021/12/22 08:13:15;;;;;;;4.65;4.35;;;;;;;-16.81;69.15;99722.97;6188158;23;20095;-76
2021/12/22 08:15:43;;;;;;;9.65;5.55;;;;;;;-17.16;70.39;99718.69;6214096;23;20036;-75
2021/12/22 08:18:09;;;;;;;9.38;3.13;;;;;;;-16.72;70.06;99708.47;6214062;23;20047;-76
2021/12/22 08:20:35;;;;;;;7.40;6.55;;;;;;;-15.98;67.03;99716.19;6187990;23;20027;-75
2021/12/22 08:23:01;;;;;;;5.25;4.30;;;;;;;-15.38;63.58;99711.44;6163014;23;20056;-75
2021/12/22 08:25:27;;;;;;;5.00;4.60;;;;;;;-15.43;63.86;99705.38;6212963;23;20021;-75
2021/12/22 08:27:54;;;;;;;4.75;4.40;;;;;;;-15.12;61.62;99696.72;6213452;23;20016;-75
2021/12/22 08:30:20;;;;;;;6.50;5.38;;;;;;;-14.99;61.58;99701.47;6187751;23;20024;-75
2021/12/22 08:32:47;;;;;;;14.43;5.85;;;;;;;-14.38;59.36;99699.88;6187181;23;20020;-76
2021/12/22 08:35:15;;;;;;;6.38;5.75;;;;;;;-15.45;61.80;99713.59;6187355;23;20027;-75
2021/12/22 08:40:27;;;;;;;6.78;5.75;;;;;;;-14.92;61.89;99695.94;6213746;23;20020;-76
2021/12/22 08:42:54;;;;;;;5.97;5.43;;;;;;;-14.08;57.81;99691.03;6213140;23;20023;-76
2021/12/22 08:45:20;;;;;;;6.53;5.88;;;;;;;-14.56;58.22;99689.13;6213774;23;20022;-75
2021/12/22 08:47:46;;;;;;;6.28;5.25;;;;;;;-14.16;58.09;99697.38;6213377;23;20029;-75
2021/12/22 08:50:13;;;;;;;2.50;2.40;;;;;;;-15.26;59.44;99705.28;6214053;23;20062;-75
2021/12/22 08:52:39;;;;;;;4.85;4.50;;;;;;;-16.15;61.91;99700.38;6187794;23;20044;-75
2021/12/22 08:55:05;;;;;;;8.50;6.68;;;;;;;-15.96;62.77;99702.09;6213770;23;20063;-75
2021/12/22 08:57:32;;;;;;;9.73;5.45;;;;;;;-16.24;63.17;99714.09;6213490;23;20024;-76
2021/12/22 08:59:58;;;;;;;5.28;2.83;;;;;;;-16.22;64.63;99710.88;6162130;23;20021;-75
2021/12/22 09:02:24;;;;;;;4.70;4.30;;;;;;;-15.51;61.94;99704.22;6211889;23;20016;-75
2021/12/22 09:04:50;;;;;;;6.28;3.72;;;;;;;-16.06;63.16;99715.81;6186961;23;20017;-75
2021/12/22 09:07:16;;;;;;;5.00;3.95;;;;;;;-16.92;66.01;99706.63;6183436;23;20035;-75
2021/12/22 09:09:44;;;;;;;5.82;5.13;;;;;;;-16.94;66.37;99704.81;6212951;23;20423;-75
2021/12/22 09:12:10;;;;;;;8.82;5.85;;;;;;;-18.04;69.40;99702.34;6186695;23;20032;-75
2021/12/22 09:14:36;;;;;;;6.20;4.32;;;;;;;-18.04;71.01;99698.22;6212908;23;20456;-75
2021/12/22 09:17:03;;;;;;;7.00;6.43;;;;;;;-17.68;71.04;99709.31;6186565;23;20059;-75
2021/12/22 09:19:29;;;;;;;3.78;3.55;;;;;;;-17.68;71.78;99701.84;6211572;23;20103;-75
2021/12/22 09:21:55;;;;;;;3.50;3.40;;;;;;;-17.32;70.47;99690.41;6161838;23;20104;-75
2021/12/22 09:24:21;;;;;;;3.38;3.28;;;;;;;-17.49;70.32;99671.22;6186827;23;20028;-75
2021/12/22 09:26:48;;;;;;;4.57;3.22;;;;;;;-17.00;68.72;99696.25;6213140;23;20026;-76
2021/12/22 09:29:14;;;;;;;4.63;3.72;;;;;;;-17.13;69.00;99693.91;6213402;23;20094;-76
2021/12/22 09:31:40;;;;;;;4.82;4.43;;;;;;;-17.48;70.56;99701.22;6186778;23;20016;-76
2021/12/22 09:34:06;;;;;;;5.20;4.78;;;;;;;-17.44;71.22;99710.56;6208943;23;20021;-75
2021/12/22 09:37:02;;;;;;;4.60;4.15;;;;;;;-17.36;71.29;99709.31;6187826;23;20023;-76
2021/12/22 09:39:29;;;;;;;3.00;2.90;;;;;;;-17.73;72.69;99708.22;6186305;23;20052;-75
2021/12/22 09:41:55;;;;;;;2.90;2.72;;;;;;;-17.52;71.93;99706.81;6192318;23;20024;-75
2021/12/22 09:44:21;;;;;;;8.02;4.80;;;;;;;-17.55;72.37;99709.19;6221964;23;20012;-75
2021/12/22 09:46:52;;;;;;;4.88;4.50;;;;;;;-17.30;71.68;99707.16;6215111;23;20021;-78
2021/12/22 09:49:24;;;;;;;4.50;3.67;;;;;;;-17.37;71.01;99709.25;6172016;23;20317;-77
2021/12/22 09:54:40;;;;;;;3.65;3.55;;;;;;;-17.13;70.90;99693.03;6204997;23;20021;-77
2021/12/22 09:57:06;;;;;;;2.67;2.63;;;;;;;-16.90;70.06;99711.66;6190976;23;20026;-76
2021/12/22 09:59:32;;;;;;;5.97;5.40;;;;;;;-16.73;69.17;99710.88;6160362;23;20020;-76
2021/12/22 10:01:58;;;;;;;2.45;2.35;;;;;;;-17.03;69.56;99716.03;6185817;23;20060;-74
2021/12/22 10:04:24;;;;;;;9.20;4.70;;;;;;;-17.07;69.64;99718.28;6213141;23;20075;-75
2021/12/22 10:06:50;;;;;;;7.22;5.70;;;;;;;-17.41;69.11;99712.38;6184336;23;20481;-78
2021/12/22 10:09:21;;;;;;;11.30;8.25;;;;;;;-17.73;70.06;99714.03;6185831;23;20048;-77
2021/12/22 10:11:48;;;;;;;8.35;4.10;;;;;;;-17.65;71.41;99724.41;6186092;23;20179;-78
2021/12/22 10:14:25;;;;;;;8.30;6.00;;;;;;;-17.80;71.29;99713.66;6212595;23;20071;-77
2021/12/22 10:16:53;;;;;;;7.25;6.03;;;;;;;-17.92;71.70;99706.34;6160168;23;20020;-77
2021/12/22 10:19:19;;;;;;;8.27;5.85;;;;;;;-17.85;72.26;99715.88;6161140;23;20043;-76
2021/12/22 10:21:59;;;;;;;6.60;3.83;;;;;;;-17.68;72.96;99719.28;6186548;23;20027;-77
2021/12/22 10:24:39;;;;;;;5.20;4.47;;;;;;;-17.95;71.70;99700.34;6212559;23;20020;-78
2021/12/22 10:27:18;;;;;;;8.90;6.10;;;;;;;-17.80;72.46;99713.66;6210387;23;20536;-77
2021/12/22 10:29:44;;;;;;;4.70;4.05;;;;;;;-17.64;73.13;99717.03;6136571;23;20020;-78
2021/12/22 10:32:25;;;;;;;13.65;9.45;;;;;;;-17.71;72.53;99722.47;6185811;23;20017;-77
2021/12/22 10:35:05;;;;;;;3.25;3.05;;;;;;;-17.94;72.79;99702.06;6187839;23;20025;-78
2021/12/22 10:37:36;;;;;;;5.38;4.80;;;;;;;-17.52;72.49;99719.28;6193837;23;20016;-76
2021/12/22 10:40:40;;;;;;;4.07;3.78;;;;;;;-17.63;72.18;99728.69;6242438;23;20023;-77
2021/12/22 10:43:20;;;;;;;9.05;6.40;;;;;;;-17.80;71.86;99723.59;6156421;23;20023;-76
2021/12/22 10:45:50;;;;;;;9.70;8.70;;;;;;;-17.86;72.67;99719.13;6167110;23;20012;-77
2021/12/22 10:51:08;;;;;;;5.57;4.97;;;;;;;-18.01;73.49;99728.28;6219916;23;20012;-77
2021/12/22 10:53:45;;;;;;;3.75;3.47;;;;;;;-17.84;73.33;99714.25;6119712;23;20027;-79
2021/12/22 10:56:36;;;;;;;3.30;3.15;;;;;;;-17.70;72.82;99716.69;6246240;23;20019;-79
2021/12/22 10:59:05;;;;;;;4.57;3.70;;;;;;;-17.91;72.92;99714.69;6246972;23;20031;-77
2021/12/22 11:01:34;;;;;;;2.13;2.13;;;;;;;-17.90;73.31;99721.41;6198279;23;20018;-78
2021/12/22 11:04:05;;;;;;;2.90;2.80;;;;;;;-17.90;74.68;99721.41;6192627;23;20023;-76
2021/12/22 11:06:36;;;;;;;8.68;6.82;;;;;;;-17.92;73.25;99690.53;6245041;23;20016;-80
2021/12/22 11:09:14;;;;;;;4.80;4.22;;;;;;;-17.72;73.34;99724.88;6192969;23;20026;-78
2021/12/22 11:12:03;;;;;;;1.85;1.85;;;;;;;-17.73;73.44;99725.66;6218810;23;20051;-76
2021/12/22 11:14:39;;;;;;;5.40;4.97;;;;;;;-17.58;72.61;99738.94;6243210;23;20050;-75
2021/12/22 11:17:07;;;;;;;3.08;2.97;;;;;;;-17.87;73.40;99726.53;6189930;23;20020;-74
2021/12/22 11:19:35;;;;;;;2.25;2.15;;;;;;;-17.80;73.91;99739.41;6243157;23;20486;-74
2021/12/22 11:26:12;;;;;;;3.38;3.17;;;;;;;-18.25;75.00;99692.94;6220490;23;20013;-78
2021/12/22 11:28:41;;;;;;;3.28;3.08;;;;;;;-18.11;75.34;99736.00;6169839;23;20368;-77
2021/12/22 11:31:33;;;;;;;7.40;6.28;;;;;;;-18.22;74.18;99703.03;6181248;23;20074;-77
2021/12/22 11:34:04;;;;;;;8.88;6.38;;;;;;;-17.98;73.40;99758.31;6189559;23;20463;-79
2021/12/22 11:36:51;;;;;;;5.18;4.75;;;;;;;-17.94;73.68;99745.28;6210976;23;20016;-77
2021/12/22 11:39:38;;;;;;;4.93;4.47;;;;;;;-18.09;73.60;99749.44;6216311;23;20459;-77
2021/12/22 11:42:42;;;;;;;9.40;6.68;;;;;;;-18.27;73.24;99738.44;6204533;23;20026;-77
2021/12/22 11:45:15;;;;;;;2.88;2.70;;;;;;;-17.96;73.14;99763.41;6214399;23;20027;-74
2021/12/22 11:47:45;;;;;;;3.40;3.30;;;;;;;-17.89;73.60;99755.47;6215160;23;20024;-75
2021/12/22 11:50:23;;;;;;;4.70;4.30;;;;;;;-18.09;74.33;99765.19;6240786;23;20412;-75
2021/12/22 11:53:03;;;;;;;3.58;3.28;;;;;;;-18.14;74.39;99765.72;6240964;23;20023;-75
2021/12/22 11:55:42;;;;;;;3.38;3.13;;;;;;;-18.09;75.11;99781.78;6214267;23;20016;-75
2021/12/22 11:58:25;;;;;;;4.20;3.80;;;;;;;-18.22;75.01;99775.25;6213759;23;20024;-75
2021/12/22 12:00:59;;;;;;;3.00;2.88;;;;;;;-18.14;76.11;99780.66;6214225;23;20012;-74
2021/12/22 12:03:36;;;;;;;4.88;3.85;;;;;;;-18.34;75.22;99787.00;6187584;23;20024;-74
2021/12/22 12:06:11;;;;;;;8.50;6.30;;;;;;;-18.34;75.49;99791.97;6213688;23;20432;-74
2021/12/22 12:08:47;;;;;;;7.60;6.70;;;;;;;-18.34;76.54;99791.97;6189379;23;20024;-74
2021/12/22 12:11:16;;;;;;;4.60;3.97;;;;;;;-18.29;76.41;99790.63;6244308;23;20020;-74
2021/12/22 12:13:55;;;;;;;4.65;4.30;;;;;;;-18.37;75.72;99776.88;6192409;23;20521;-75
2021/12/22 12:22:10;;;;;;;4.35;3.95;;;;;;;-18.45;77.16;99797.97;6216909;23;19916;-75
2021/12/22 12:24:46;;;;;;;9.20;4.82;;;;;;;-18.46;77.59;99803.72;6214535;23;20074;-75
2021/12/22 12:27:32;;;;;;;4.72;4.32;;;;;;;-18.43;77.07;99803.03;6214770;23;20024;-75
2021/12/22 12:30:08;;;;;;;5.90;4.68;;;;;;;-18.47;76.89;99809.47;6214995;23;20054;-74
2021/12/22 12:32:40;;;;;;;3.90;3.70;;;;;;;-18.52;78.30;99805.91;6241853;23;20020;-75
2021/12/22 12:35:19;;;;;;;4.93;4.30;;;;;;;-18.57;78.50;99801.41;6242652;23;20023;-76
2021/12/22 12:38:17;;;;;;;8.23;3.67;;;;;;;-18.59;77.48;99806.31;6215281;23;20020;-76
2021/12/22 12:40:57;;;;;;;4.85;3.97;;;;;;;-18.64;77.59;99805.16;6241227;23;20020;-75
2021/12/22 12:43:42;;;;;;;4.90;4.50;;;;;;;-18.59;77.68;99807.94;6214331;23;20016;-75
2021/12/22 12:46:20;;;;;;;6.30;4.88;;;;;;;-18.67;77.78;99810.84;6239972;23;20404;-77
2021/12/22 12:48:47;;;;;;;3.78;3.50;;;;;;;-18.72;77.57;99806.38;6241681;23;20423;-76
2021/12/22 12:51:17;;;;;;;9.85;6.90;;;;;;;-18.79;76.55;99814.22;6243331;23;20023;-75
2021/12/22 12:53:45;;;;;;;3.55;3.42;;;;;;;-18.86;76.69;99812.16;6243087;23;20016;-75
2021/12/22 12:56:12;;;;;;;2.88;2.67;;;;;;;-18.88;76.67;99818.69;6241346;23;20023;-75
2021/12/22 12:59:10;;;;;;;3.85;3.50;;;;;;;-18.97;76.24;99828.09;6240903;23;20047;-76
2021/12/22 13:05:43;;;;;;;12.63;4.32;;;;;;;-19.22;76.24;99824.09;6244848;23;20077;-77
2021/12/22 13:08:09;;;;;;;2.55;2.45;;;;;;;-19.21;76.16;99837.41;6189392;23;20023;-76
2021/12/22 13:10:36;;;;;;;6.68;6.03;;;;;;;-19.20;77.14;99837.47;6214646;23;20016;-76
2021/12/22 13:13:19;;;;;;;4.25;3.92;;;;;;;-19.27;75.75;99837.03;6241641;23;20016;-74
2021/12/22 13:15:46;;;;;;;2.67;2.47;;;;;;;-19.25;75.51;99842.94;6241442;23;20026;-74
2021/12/22 13:18:24;;;;;;;7.82;5.47;;;;;;;-19.32;75.02;99844.19;6240639;23;20372;-74
2021/12/22 13:20:54;;;;;;;5.22;4.22;;;;;;;-19.37;74.66;99855.47;6214552;23;20027;-74
2021/12/22 13:23:21;;;;;;;2.90;2.80;;;;;;;-19.39;76.19;99861.09;6216831;23;20020;-74
2021/12/22 13:25:52;;;;;;;5.35;4.47;;;;;;;-19.46;76.31;99854.91;6240206;23;20024;-74
2021/12/22 13:28:28;;;;;;;4.38;4.00;;;;;;;-19.57;75.46;99860.88;6215190;23;20056;-74
2021/12/22 13:30:56;;;;;;;6.03;2.88;;;;;;;-19.61;75.30;99839.06;6237299;23;20023;-75
2021/12/22 13:33:34;;;;;;;5.25;4.72;;;;;;;-19.61;75.04;99841.56;6187598;23;20108;-75
2021/12/22 13:36:10;;;;;;;8.85;3.13;;;;;;;-19.57;76.24;99860.00;6213968;23;20020;-75
2021/12/22 13:38:41;;;;;;;8.43;5.80;;;;;;;-19.63;76.06;99858.00;6239463;23;20027;-74
2021/12/22 13:41:15;;;;;;;4.57;4.18;;;;;;;-19.61;75.57;99858.94;6239136;23;20020;-75
2021/12/22 13:43:45;;;;;;;4.28;3.92;;;;;;;-19.59;75.90;99866.47;6213446;23;20020;-75
2021/12/22 13:46:12;;;;;;;2.70;2.58;;;;;;;-19.62;76.49;99869.63;6212898;23;20016;-75
2021/12/22 13:48:55;;;;;;;2.50;2.35;;;;;;;-19.63;76.18;99867.94;6237338;23;20510;-75
2021/12/22 13:51:29;;;;;;;3.63;3.42;;;;;;;-19.67;75.99;99866.00;6211285;23;20034;-76
2021/12/22 13:53:55;;;;;;;2.35;2.25;;;;;;;-19.72;75.98;99854.91;6240025;23;20020;-75
2021/12/22 13:56:22;;;;;;;3.00;2.80;;;;;;;-19.75;76.47;99849.75;6189445;23;20495;-75
2021/12/22 13:58:49;;;;;;;3.53;3.22;;;;;;;-19.70;76.50;99864.22;6213212;23;20074;-75
2021/12/22 14:01:34;;;;;;;6.65;3.85;;;;;;;-19.78;75.83;99855.41;6213859;23;20012;-75
2021/12/22 14:04:03;;;;;;;5.85;3.55;;;;;;;-19.74;76.05;99866.38;6214321;23;20022;-75
2021/12/22 14:06:37;;;;;;;3.05;2.92;;;;;;;-19.82;76.81;99867.50;6240311;23;20356;-76
2021/12/22 14:09:08;;;;;;;2.38;2.28;;;;;;;-19.77;75.88;99866.19;6163571;23;20094;-75
2021/12/22 14:11:35;;;;;;;5.32;4.93;;;;;;;-19.77;76.62;99873.66;6186782;23;20042;-75
2021/12/22 14:14:20;;;;;;;4.72;3.97;;;;;;;-19.92;75.72;99860.25;6239051;23;20016;-75
2021/12/22 14:16:47;;;;;;;3.13;2.75;;;;;;;-19.99;76.72;99870.56;6187693;23;20040;-75
2021/12/22 14:19:21;;;;;;;8.85;4.18;;;;;;;-19.88;76.22;99884.50;6238213;23;20023;-75
2021/12/22 14:21:49;;;;;;;2.67;2.58;;;;;;;-19.91;75.40;99882.69;6241606;23;20020;-75
2021/12/22 14:24:35;;;;;;;4.18;3.90;;;;;;;-19.99;75.91;99887.94;6241846;23;20352;-75
2021/12/22 14:27:02;;;;;;;2.78;2.58;;;;;;;-20.01;76.36;99882.00;6240990;23;20020;-75
2021/12/22 14:29:29;;;;;;;3.60;3.40;;;;;;;-20.00;76.44;99888.69;6241693;23;20027;-75
2021/12/22 14:32:03;;;;;;;5.15;4.63;;;;;;;-20.06;77.15;99886.69;6214686;23;20016;-75
2021/12/22 14:34:29;;;;;;;4.28;3.97;;;;;;;-20.03;76.59;99891.84;6216410;23;20062;-75
2021/12/22 14:36:56;;;;;;;3.60;3.40;;;;;;;-20.02;76.84;99900.16;6214642;23;20016;-75
2021/12/22 14:39:43;;;;;;;3.50;3.22;;;;;;;-20.09;77.16;99890.56;6241337;23;20031;-75
2021/12/22 14:42:22;;;;;;;5.88;5.13;;;;;;;-20.24;77.46;99866.47;6241196;23;20125;-75
2021/12/22 14:44:49;;;;;;;2.47;2.13;;;;;;;-20.14;76.60;99891.88;6214610;23;20447;-75
2021/12/22 14:47:21;;;;;;;3.83;3.53;;;;;;;-20.14;76.66;99895.22;6240079;23;20103;-75
2021/12/22 14:49:50;;;;;;;3.20;3.05;;;;;;;-20.15;76.85;99900.09;6241252;23;20020;-75
2021/12/22 14:52:19;;;;;;;4.07;3.72;;;;;;;-20.18;76.85;99900.75;6239404;23;20024;-75
2021/12/22 14:54:45;;;;;;;3.38;3.25;;;;;;;-20.24;78.13;99901.22;6242158;23;20440;-75
2021/12/22 14:57:23;;;;;;;1.75;1.75;;;;;;;-20.23;77.86;99917.84;6214419;23;20016;-75
2021/12/22 14:59:50;;;;;;;3.78;2.92;;;;;;;-20.23;77.48;99907.03;6241530;23;20089;-74
2021/12/22 15:02:16;;;;;;;3.00;2.90;;;;;;;-20.18;77.49;99908.19;6189910;23;20395;-73
2021/12/22 15:04:42;;;;;;;5.80;4.55;;;;;;;-20.14;77.20;99912.59;6214523;23;20415;-74
2021/12/22 15:07:07;;;;;;;4.95;4.32;;;;;;;-20.08;76.60;99907.16;6214506;23;20035;-73
2021/12/22 15:09:33;;;;;;;14.88;8.10;;;;;;;-20.20;77.28;99894.84;6242165;23;20028;-76
2021/12/22 15:12:00;;;;;;;7.70;7.07;;;;;;;-20.18;76.78;99890.00;6241965;23;20020;-74
2021/12/22 15:14:26;;;;;;;13.30;8.05;;;;;;;-20.09;75.19;99905.47;6240955;23;20187;-74
2021/12/22 15:16:52;;;;;;;7.05;5.97;;;;;;;-20.04;75.72;99902.50;6189416;23;20024;-75
2021/12/22 15:19:18;;;;;;;3.85;3.55;;;;;;;-20.01;74.88;99902.72;6218615;23;20090;-75
2021/12/22 15:21:44;;;;;;;9.07;7.88;;;;;;;-20.00;74.34;99906.06;6220889;23;20027;-75
2021/12/22 15:24:10;;;;;;;4.05;3.75;;;;;;;-20.01;74.56;99899.38;6243671;23;20020;-74
2021/12/22 15:26:56;;;;;;;5.75;4.53;;;;;;;-20.06;75.31;99889.16;6243191;23;20366;-75
2021/12/22 15:29:34;;;;;;;6.93;6.22;;;;;;;-19.98;75.08;99894.59;6216714;23;20095;-75
2021/12/22 15:32:00;;;;;;;6.68;5.88;;;;;;;-19.95;73.73;99903.09;6241233;23;20078;-76
2021/12/22 15:34:28;;;;;;;6.70;5.07;;;;;;;-20.06;72.75;99889.16;6243272;23;20367;-77
2021/12/22 15:36:54;;;;;;;10.35;6.05;;;;;;;-19.99;72.52;99903.69;6244306;23;20020;-79
2021/12/22 15:39:20;;;;;;;7.10;6.40;;;;;;;-20.06;72.77;99901.56;6218338;23;20418;-78
2021/12/22 15:41:46;;;;;;;8.48;6.50;;;;;;;-19.98;73.46;99904.53;6240943;23;20102;-79
2021/12/22 15:44:12;;;;;;;7.30;5.97;;;;;;;-20.00;72.06;99906.94;6218595;23;20039;-78
2021/12/22 15:46:38;;;;;;;7.03;5.00;;;;;;;-20.01;73.22;99900.22;6219029;23;20274;-76
2021/12/22 15:50:00;;;;;;;;;;;;;;;;;;;;;
2021/12/22 15:53:43;;;;;;;5.28;3.97;;;;;;;-19.99;72.15;99900.34;6125555;23;20020;-76
2021/12/22 15:57:19;;;;;;;5.18;4.78;;;;;;;-20.04;72.21;99909.09;6056532;23;20057;-76
2021/12/22 16:09:37;;;;;;;;;;;;;;;;;;;;;
2021/12/22 16:21:36;;;;;;;8.15;6.10;;;;;;;-20.09;74.72;99900.50;5894891;24;20375;-77
2021/12/22 16:32:41;;;;;;;;;;;;;;;;;;;;;
2021/12/22 16:35:09;;;;;;;8.07;5.80;;;;;;;-20.06;74.21;99916.47;5927717;24;20024;-77
2021/12/22 16:37:36;;;;;;;6.05;3.42;;;;;;;-20.12;74.70;99921.03;6085682;23;20076;-77
2021/12/22 16:40:03;;;;;;;5.78;5.03;;;;;;;-20.07;75.97;99924.66;6122351;23;20022;-76
2021/12/22 16:42:29;;;;;;;2.47;2.38;;;;;;;-20.11;75.68;99926.81;6123142;23;20018;-77
2021/12/22 16:44:55;;;;;;;7.03;4.85;;;;;;;-20.06;76.28;99932.97;6096915;23;20021;-77
2021/12/22 16:47:21;;;;;;;4.55;4.18;;;;;;;-20.08;76.25;99927.03;6121724;23;20106;-77
2021/12/22 16:49:47;;;;;;;6.40;5.25;;;;;;;-20.15;76.31;99913.34;6097197;23;20074;-78
2021/12/22 16:52:13;;;;;;;3.75;3.50;;;;;;;-20.08;75.56;99924.53;6121449;23;20018;-77
2021/12/22 16:54:39;;;;;;;1.85;1.85;;;;;;;-20.11;76.05;99921.84;6133029;23;20029;-75
2021/12/22 16:57:05;;;;;;;2.25;2.10;;;;;;;-20.23;76.98;99919.44;6213557;23;20016;-77
2021/12/22 16:59:31;;;;;;;6.88;4.90;;;;;;;-20.19;77.33;99928.81;6213171;23;20477;-76
2021/12/22 17:01:57;;;;;;;3.75;3.58;;;;;;;-20.18;77.78;99914.81;6162032;23;20021;-75
2021/12/22 17:04:23;;;;;;;1.70;1.70;;;;;;;-20.20;77.67;99912.19;6214686;23;20028;-76
2021/12/22 17:06:51;;;;;;;33.03;9.48;;;;;;;-20.19;77.14;99913.06;6189129;23;20453;-77
2021/12/22 17:09:17;;;;;;;7.30;6.20;;;;;;;-20.16;76.25;99925.69;6207791;23;20027;-75
2021/12/22 17:11:45;;;;;;;5.18;4.25;;;;;;;-20.10;74.79;99934.38;6217497;23;20020;-75
2021/12/22 17:14:11;;;;;;;4.82;4.35;;;;;;;-20.12;74.01;99932.56;6246695;23;20134;-79
2021/12/22 17:16:40;;;;;;;7.90;4.93;;;;;;;-20.12;75.07;99935.91;6225592;23;20471;-79
2021/12/22 17:19:06;;;;;;;3.78;3.55;;;;;;;-20.16;75.29;99918.22;6223866;23;20031;-79
2021/12/22 17:21:32;;;;;;;11.13;8.50;;;;;;;-20.14;75.07;99936.56;6221754;23;20032;-78
2021/12/22 17:23:58;;;;;;;6.30;5.78;;;;;;;-20.13;74.70;99929.22;6250136;23;20027;-78
2021/12/22 17:26:24;;;;;;;6.13;4.88;;;;;;;-20.13;75.40;99921.78;6203000;23;20020;-79
2021/12/22 17:28:50;;;;;;;6.07;3.88;;;;;;;-20.10;75.42;99924.47;6250233;23;20016;-79
2021/12/22 17:31:16;;;;;;;5.07;4.60;;;;;;;-20.08;75.26;99924.53;6253685;23;20043;-79
2021/12/22 17:33:43;;;;;;;3.97;3.67;;;;;;;-20.08;75.37;99922.06;6252890;23;20015;-79
2021/12/22 17:36:09;;;;;;;3.15;2.95;;;;;;;-20.09;75.17;99927.81;6247760;23;20502;-78
2021/12/22 17:38:35;;;;;;;2.85;2.60;;;;;;;-20.13;75.87;99934.19;6250773;23;20032;-79
2021/12/22 17:41:02;;;;;;;4.95;4.43;;;;;;;-20.10;76.23;99938.47;6259564;23;20463;-80
2021/12/22 17:43:29;;;;;;;4.03;3.47;;;;;;;-20.13;75.86;99940.75;6223572;23;20031;-79